Iran Shahr Airport
OIZI : now visible

Airfield :











YOU CAN JOIN US ON...

 
LOGIN :

Register | Disclaimer

   EN    FR    IT 

 









Legend :    VFR   Marginal VFR   IFR   Intensive IFR   Very Intensive IFR
Visi :
Ceiling :
>= 8 km
>= 3000ft
5 to 8 km
1000 to 3000 ft
1500m to 5 km
500 to 1000 ft
800 to 1500m
200 to 500 ft
< 800m
< 200 ft
Symbols :   Thunderstorms  Fog  Heavy snow  Heavy precipitations  Wind > 20 kt






- Airport Elevation : 2040 ft


OIZI - Iran Shahr

CURRENT METAR :
  • 192100Z 15006KT CAVOK 37/21 Q0998

EXPIRED METARs :
  • 192000Z 15010KT CAVOK 38/21 Q0998
  • 191900Z 14012KT CAVOK 38/20 Q0998
  • 191800Z 15014KT 8000 NSC 39/20 Q0997
  • 191700Z 36008KT CAVOK 42/06 Q0996

TAF N/A
OIIX FIR / Asia



MET'MAP, your aeronautical weather chart ! - Copyright ORBIFLY December 2007 - Disclaimer

ORBIFLY MET'MAP TEAM :

Programming & Development : Alexandra Zaïnal
Original concept : Baudouin d'Aumeries
Technical & hardware support : Manuel Goepfert
Assistance : Marc-Olivier Méhu




SOURCES & CREDITS :

   NOAA       Earth
Advisory